Time;durP1;ratioP1;P1;durP2;ratioP2;P2;SDS_P1;SDS_P2;PMS_P1;PMS_P2;Temp;Humidity;BMP_temperature;BMP_pressure;BME280_temperature;BME280_humidity;BME280_pressure;Samples;Min_cycle;Max_cycle;Signal;HPM_P1;HPM_P2
2022/12/27 00:00:09;;;;;;;0.80;0.80;;;;;;;;;;5073654;28;20288;-86
2022/12/27 00:02:38;;;;;;;1.25;1.10;;;;;;;;;;5073718;28;20268;-85
2022/12/27 00:05:08;;;;;;;1.85;1.30;;;;;;;;;;5075497;28;20256;-86
2022/12/27 00:07:36;;;;;;;3.40;1.15;;;;;;;;;;5076892;28;20261;-85
2022/12/27 00:10:04;;;;;;;1.25;1.20;;;;;;;;;;5076799;28;20649;-86
2022/12/27 00:12:32;;;;;;;0.98;0.80;;;;;;;;;;5076648;28;20242;-86
2022/12/27 00:14:59;;;;;;;1.20;1.10;;;;;;;;;;5076941;28;20795;-86
2022/12/27 00:17:28;;;;;;;2.00;1.10;;;;;;;;;;5076714;28;20657;-86
2022/12/27 00:19:56;;;;;;;1.20;1.00;;;;;;;;;;5076535;28;20255;-86
2022/12/27 00:22:23;;;;;;;3.83;1.27;;;;;;;;;;5076391;28;20228;-86
2022/12/27 00:24:51;;;;;;;1.00;1.00;;;;;;;;;;5076113;28;20252;-86
2022/12/27 00:27:19;;;;;;;1.10;1.00;;;;;;;;;;5076555;28;20719;-85
2022/12/27 00:29:46;;;;;;;2.05;1.08;;;;;;;;;;5076759;28;20227;-85
2022/12/27 00:32:14;;;;;;;1.30;1.02;;;;;;;;;;5077353;28;20653;-86
2022/12/27 00:34:43;;;;;;;2.17;1.10;;;;;;;;;;5076037;28;20308;-86
2022/12/27 00:37:10;;;;;;;1.70;1.60;;;;;;;;;;5076264;28;20221;-85
2022/12/27 00:39:38;;;;;;;4.55;1.08;;;;;;;;;;5075967;28;20650;-85
2022/12/27 00:42:05;;;;;;;1.00;1.00;;;;;;;;;;5075870;28;20276;-86
2022/12/27 00:44:33;;;;;;;1.52;1.02;;;;;;;;;;5076205;28;20708;-86
2022/12/27 00:47:00;;;;;;;1.40;1.10;;;;;;;;;;5076360;28;20254;-84
2022/12/27 00:49:28;;;;;;;2.90;1.58;;;;;;;;;;5075806;28;20235;-85
2022/12/27 00:51:57;;;;;;;2.28;1.30;;;;;;;;;;5075569;28;20287;-85
2022/12/27 00:54:24;;;;;;;1.10;0.95;;;;;;;;;;5075498;28;20316;-86
2022/12/27 00:56:52;;;;;;;3.38;1.90;;;;;;;;;;5075261;28;20288;-85
2022/12/27 00:59:19;;;;;;;2.42;1.30;;;;;;;;;;5075667;28;20277;-85
2022/12/27 01:01:47;;;;;;;1.58;1.30;;;;;;;;;;5076277;28;20235;-86
2022/12/27 01:04:16;;;;;;;1.45;1.20;;;;;;;;;;5075459;28;20292;-86
2022/12/27 01:06:43;;;;;;;5.03;1.40;;;;;;;;;;5075448;28;20311;-85
2022/12/27 01:09:12;;;;;;;2.35;1.40;;;;;;;;;;5075641;28;20236;-86
2022/12/27 01:11:41;;;;;;;1.02;0.90;;;;;;;;;;5075950;28;20193;-86
2022/12/27 01:14:10;;;;;;;2.88;1.30;;;;;;;;;;5075470;28;20193;-85
2022/12/27 01:16:39;;;;;;;1.63;1.25;;;;;;;;;;5075113;28;20235;-86
2022/12/27 01:19:06;;;;;;;2.30;1.38;;;;;;;;;;5075793;28;20220;-86
2022/12/27 01:21:34;;;;;;;1.92;1.33;;;;;;;;;;5075185;28;20288;-86
2022/12/27 01:24:01;;;;;;;2.95;1.50;;;;;;;;;;5075284;28;20676;-86
2022/12/27 01:26:30;;;;;;;2.75;1.30;;;;;;;;;;5075033;28;20264;-85
2022/12/27 01:28:58;;;;;;;1.30;1.20;;;;;;;;;;5075299;28;20248;-86
2022/12/27 01:31:28;;;;;;;1.30;1.20;;;;;;;;;;5074537;28;20193;-86
2022/12/27 01:33:57;;;;;;;1.45;1.20;;;;;;;;;;5075112;28;20193;-86
2022/12/27 01:36:26;;;;;;;1.83;1.30;;;;;;;;;;5075037;28;20288;-86
2022/12/27 01:38:54;;;;;;;4.90;2.30;;;;;;;;;;5075464;28;20287;-86
2022/12/27 01:44:58;;;;;;;3.05;1.58;;;;;;;;;;5026686;28;20197;-85
2022/12/27 01:47:46;;;;;;;3.97;2.47;;;;;;;;;;5012864;28;20274;-86
2022/12/27 01:50:21;;;;;;;1.70;1.60;;;;;;;;;;5012964;28;20275;-86
2022/12/27 01:52:54;;;;;;;2.65;1.58;;;;;;;;;;5055248;28;20283;-85
2022/12/27 01:55:29;;;;;;;1.92;1.25;;;;;;;;;;5074843;28;20256;-86
2022/12/27 01:58:03;;;;;;;3.88;1.77;;;;;;;;;;5074325;28;20649;-86
2022/12/27 02:00:32;;;;;;;3.45;2.05;;;;;;;;;;5074637;28;20181;-86
2022/12/27 02:03:00;;;;;;;1.92;1.42;;;;;;;;;;5074680;28;20228;-85
2022/12/27 02:05:28;;;;;;;2.83;1.63;;;;;;;;;;5074600;28;20312;-86
2022/12/27 02:08:08;;;;;;;1.25;1.10;;;;;;;;;;5074266;28;20197;-87
2022/12/27 02:10:36;;;;;;;3.80;1.75;;;;;;;;;;5074360;28;20182;-86
2022/12/27 02:13:05;;;;;;;3.33;1.40;;;;;;;;;;5074447;28;20292;-86
2022/12/27 02:15:34;;;;;;;4.43;1.92;;;;;;;;;;5073920;28;20217;-86
2022/12/27 02:18:03;;;;;;;1.92;1.63;;;;;;;;;;5074387;28;20201;-86
2022/12/27 02:20:51;;;;;;;1.55;1.45;;;;;;;;;;5073806;28;20178;-86
2022/12/27 02:24:05;;;;;;;3.22;1.75;;;;;;;;;;5074246;28;20193;-86
2022/12/27 02:26:52;;;;;;;6.15;2.45;;;;;;;;;;5066420;28;20224;-87
2022/12/27 02:29:59;;;;;;;3.33;1.92;;;;;;;;;;5073713;28;20192;-86
2022/12/27 02:32:32;;;;;;;2.88;1.92;;;;;;;;;;5045003;28;20201;-86
2022/12/27 02:35:19;;;;;;;3.05;2.28;;;;;;;;;;5073592;28;20293;-85
2022/12/27 02:37:53;;;;;;;3.83;2.00;;;;;;;;;;5074000;28;20586;-86
2022/12/27 02:55:08;;;;;;;1.85;1.65;;;;;;;;;;5073652;28;20248;-84
2022/12/27 02:57:42;;;;;;;1.70;1.60;;;;;;;;;;5073784;28;20280;-86
2022/12/27 03:03:30;;;;;;;3.13;1.58;;;;;;;;;;5072967;28;20185;-86
2022/12/27 03:06:40;;;;;;;1.88;1.42;;;;;;;;;;5070179;28;20315;-85
2022/12/27 03:17:53;;;;;;;1.55;1.33;;;;;;;;;;5073592;28;20235;-86
2022/12/27 03:25:55;;;;;;;2.35;1.70;;;;;;;;;;5073258;28;20216;-85
2022/12/27 03:34:30;;;;;;;1.63;1.52;;;;;;;;;;5073255;28;20644;-86
2022/12/27 03:39:46;;;;;;;4.00;1.92;;;;;;;;;;5077201;28;20744;-87
2022/12/27 03:46:32;;;;;;;3.60;1.60;;;;;;;;;;5014510;28;20226;-86
2022/12/27 03:48:11;;;;;;;3.95;1.80;;;;;;;;;;5014759;28;20708;-87
2022/12/27 03:50:43;;;;;;;1.83;1.20;;;;;;;;;;5052997;28;20209;-86
2022/12/27 03:53:18;;;;;;;2.78;1.80;;;;;;;;;;5077102;28;20289;-85
2022/12/27 03:55:46;;;;;;;2.35;1.20;;;;;;;;;;5076860;28;20418;-86
2022/12/27 03:58:13;;;;;;;1.85;1.35;;;;;;;;;;5077129;28;20592;-86
2022/12/27 04:00:41;;;;;;;1.10;1.00;;;;;;;;;;5077384;28;20646;-86
2022/12/27 04:03:08;;;;;;;2.45;1.23;;;;;;;;;;5076993;28;20284;-85
2022/12/27 04:05:36;;;;;;;1.75;1.65;;;;;;;;;;5076826;28;20263;-86
2022/12/27 04:35:38;;;;;;;1.88;1.23;;;;;;;;;;5075656;28;20224;-85
2022/12/27 04:38:05;;;;;;;2.28;1.05;;;;;;;;;;5076190;28;20231;-85
2022/12/27 04:57:06;;;;;;;1.42;1.33;;;;;;;;;;5076129;28;20187;-87
2022/12/27 05:02:20;;;;;;;1.52;1.25;;;;;;;;;;5076032;28;20180;-86
2022/12/27 05:04:48;;;;;;;2.97;1.52;;;;;;;;;;5076123;28;20300;-85
2022/12/27 05:15:37;;;;;;;1.85;1.27;;;;;;;;;;5075733;28;20220;-86
2022/12/27 05:18:05;;;;;;;2.35;1.48;;;;;;;;;;5075130;28;20572;-85
2022/12/27 05:20:34;;;;;;;2.33;1.73;;;;;;;;;;5075875;28;20280;-85
2022/12/27 05:25:47;;;;;;;1.25;1.10;;;;;;;;;;5075595;28;20590;-86
2022/12/27 05:28:15;;;;;;;2.72;1.15;;;;;;;;;;5075667;28;20252;-86
2022/12/27 05:30:45;;;;;;;3.25;1.63;;;;;;;;;;5075370;28;20681;-85
2022/12/27 05:33:12;;;;;;;2.80;1.48;;;;;;;;;;5074808;28;20240;-85
2022/12/27 05:35:40;;;;;;;1.27;1.17;;;;;;;;;;5074853;28;20271;-86
2022/12/27 05:38:08;;;;;;;1.55;1.33;;;;;;;;;;5120000;22;20223;-86
2022/12/27 05:40:35;;;;;;;2.38;1.30;;;;;;;;;;5120477;28;20192;-85
2022/12/27 05:43:04;;;;;;;1.60;1.50;;;;;;;;;;5101478;28;20243;-84
2022/12/27 05:45:32;;;;;;;1.98;1.30;;;;;;;;;;5116910;28;20687;-85
2022/12/27 05:48:01;;;;;;;1.08;1.00;;;;;;;;;;5129712;27;20244;-85
2022/12/27 05:50:28;;;;;;;1.30;1.20;;;;;;;;;;5140562;27;20709;-86
2022/12/27 05:52:56;;;;;;;1.95;1.00;;;;;;;;;;5140330;27;20651;-86
2022/12/27 05:55:24;;;;;;;1.67;1.17;;;;;;;;;;5140066;27;20262;-86
2022/12/27 05:57:51;;;;;;;1.27;1.17;;;;;;;;;;5141637;27;20710;-85
2022/12/27 06:00:19;;;;;;;2.53;1.33;;;;;;;;;;5141603;27;20206;-86
2022/12/27 06:02:47;;;;;;;1.25;1.15;;;;;;;;;;5139236;27;20599;-86
2022/12/27 06:05:16;;;;;;;1.00;1.00;;;;;;;;;;5140947;27;20206;-85
2022/12/27 06:07:44;;;;;;;1.38;1.00;;;;;;;;;;5129069;27;20234;-86
2022/12/27 06:10:11;;;;;;;1.90;1.20;;;;;;;;;;5118975;28;20227;-86
2022/12/27 06:12:39;;;;;;;2.35;1.75;;;;;;;;;;5119579;28;20286;-86
2022/12/27 06:15:08;;;;;;;3.25;1.65;;;;;;;;;;5119928;27;20636;-85
2022/12/27 06:17:35;;;;;;;1.40;1.30;;;;;;;;;;5138532;27;20215;-85
2022/12/27 06:20:03;;;;;;;1.65;1.00;;;;;;;;;;5123691;27;20218;-86
2022/12/27 06:22:32;;;;;;;0.80;0.80;;;;;;;;;;5139626;27;20230;-87
2022/12/27 06:25:00;;;;;;;1.92;1.23;;;;;;;;;;5139012;27;20205;-87
2022/12/27 06:27:27;;;;;;;0.90;0.90;;;;;;;;;;5120469;27;20592;-85
2022/12/27 06:29:55;;;;;;;1.60;1.27;;;;;;;;;;5130472;27;20203;-87
2022/12/27 06:32:22;;;;;;;1.38;1.25;;;;;;;;;;5138244;27;20545;-84
2022/12/27 06:34:50;;;;;;;1.42;1.40;;;;;;;;;;5139743;27;20229;-86
2022/12/27 06:37:17;;;;;;;1.20;1.02;;;;;;;;;;5139561;27;20226;-86
2022/12/27 06:39:46;;;;;;;1.92;1.23;;;;;;;;;;5139984;27;20689;-86
2022/12/27 06:42:14;;;;;;;1.98;1.30;;;;;;;;;;5136106;27;20203;-86
2022/12/27 06:44:42;;;;;;;2.47;1.42;;;;;;;;;;5137967;27;20201;-87
2022/12/27 06:47:09;;;;;;;1.00;1.00;;;;;;;;;;5140461;27;20288;-85
2022/12/27 06:49:37;;;;;;;1.00;1.00;;;;;;;;;;5140469;27;20281;-85
2022/12/27 06:52:05;;;;;;;2.10;1.33;;;;;;;;;;5140452;27;20218;-86
2022/12/27 06:54:33;;;;;;;1.25;1.20;;;;;;;;;;5137283;27;20203;-86
2022/12/27 06:57:01;;;;;;;0.95;0.93;;;;;;;;;;5120148;28;20195;-86
2022/12/27 06:59:30;;;;;;;1.30;1.10;;;;;;;;;;5119460;28;20225;-85
2022/12/27 07:01:57;;;;;;;0.88;0.88;;;;;;;;;;5135841;27;20271;-86
2022/12/27 07:04:25;;;;;;;1.38;1.27;;;;;;;;;;5140088;27;20202;-84
2022/12/27 07:06:52;;;;;;;1.35;1.25;;;;;;;;;;5131141;27;20657;-86
2022/12/27 07:09:20;;;;;;;1.70;1.40;;;;;;;;;;5125309;27;20305;-87
2022/12/27 07:11:47;;;;;;;1.42;1.33;;;;;;;;;;5139362;27;20237;-86
2022/12/27 07:14:16;;;;;;;3.60;1.30;;;;;;;;;;5136325;27;20240;-84
2022/12/27 07:16:44;;;;;;;1.35;1.25;;;;;;;;;;5133903;27;20564;-86
2022/12/27 07:19:11;;;;;;;1.30;1.20;;;;;;;;;;5139082;27;20247;-86
2022/12/27 07:21:39;;;;;;;2.35;2.15;;;;;;;;;;5139282;28;20239;-84
2022/12/27 07:24:07;;;;;;;1.50;1.40;;;;;;;;;;5125253;28;20199;-87
2022/12/27 07:26:35;;;;;;;1.15;1.05;;;;;;;;;;5118246;28;20199;-86
2022/12/27 07:29:03;;;;;;;1.52;1.40;;;;;;;;;;5117166;28;20255;-86
2022/12/27 07:31:33;;;;;;;2.95;1.50;;;;;;;;;;5120596;28;20262;-87
2022/12/27 07:34:02;;;;;;;4.53;1.95;;;;;;;;;;5138245;28;20211;-85
2022/12/27 07:36:34;;;;;;;1.38;1.27;;;;;;;;;;5138292;28;20287;-84
2022/12/27 07:39:01;;;;;;;3.58;1.50;;;;;;;;;;5131439;28;20306;-87
2022/12/27 07:41:29;;;;;;;2.88;1.63;;;;;;;;;;5139209;28;20231;-85
2022/12/27 07:43:56;;;;;;;1.20;1.20;;;;;;;;;;5138653;28;20290;-86
2022/12/27 07:46:25;;;;;;;1.35;1.25;;;;;;;;;;5132180;28;20199;-84
2022/12/27 07:48:56;;;;;;;1.40;1.30;;;;;;;;;;5128324;28;20742;-85
2022/12/27 07:51:25;;;;;;;1.20;1.10;;;;;;;;;;5138791;28;20234;-86
2022/12/27 07:53:53;;;;;;;1.05;1.05;;;;;;;;;;5134225;28;20270;-86
2022/12/27 07:56:22;;;;;;;0.90;0.90;;;;;;;;;;5137840;28;20209;-86
2022/12/27 07:58:51;;;;;;;1.55;1.20;;;;;;;;;;5137581;28;20246;-84
2022/12/27 08:01:21;;;;;;;1.30;1.20;;;;;;;;;;5128437;28;20192;-86
2022/12/27 08:03:48;;;;;;;1.00;1.00;;;;;;;;;;5135387;28;20282;-85
2022/12/27 08:06:23;;;;;;;1.20;1.10;;;;;;;;;;5137496;28;20206;-85
2022/12/27 08:08:51;;;;;;;0.90;0.90;;;;;;;;;;5131562;28;20671;-85
2022/12/27 08:11:19;;;;;;;1.30;1.20;;;;;;;;;;5137635;28;20191;-84
2022/12/27 08:13:47;;;;;;;1.13;1.13;;;;;;;;;;5136945;28;20280;-85
2022/12/27 08:16:17;;;;;;;3.17;1.20;;;;;;;;;;5122997;28;20226;-86
2022/12/27 08:18:45;;;;;;;1.58;1.48;;;;;;;;;;5134555;28;20211;-87
2022/12/27 08:21:13;;;;;;;1.55;1.20;;;;;;;;;;5137258;28;20240;-86
2022/12/27 08:23:42;;;;;;;1.48;1.38;;;;;;;;;;5137473;28;20262;-85
2022/12/27 08:26:10;;;;;;;1.35;1.25;;;;;;;;;;5139680;27;20690;-87
2022/12/27 08:28:37;;;;;;;2.33;1.20;;;;;;;;;;5140553;27;20305;-87
2022/12/27 08:31:08;;;;;;;1.58;1.48;;;;;;;;;;5124393;27;20302;-85
2022/12/27 08:33:36;;;;;;;1.65;1.20;;;;;;;;;;5126413;27;20544;-85
2022/12/27 08:36:05;;;;;;;1.60;1.42;;;;;;;;;;5140828;27;20195;-86
2022/12/27 08:38:33;;;;;;;2.10;1.52;;;;;;;;;;5140462;27;20676;-84
2022/12/27 08:41:02;;;;;;;1.65;1.55;;;;;;;;;;5140931;27;20205;-84
2022/12/27 08:43:30;;;;;;;1.83;1.25;;;;;;;;;;5140950;27;20612;-86
2022/12/27 08:46:02;;;;;;;4.05;1.52;;;;;;;;;;5132451;27;20210;-87
2022/12/27 08:48:31;;;;;;;1.30;1.20;;;;;;;;;;5119723;28;20216;-85
2022/12/27 08:50:58;;;;;;;1.38;1.27;;;;;;;;;;5120121;28;20258;-87
2022/12/27 08:53:26;;;;;;;1.48;1.30;;;;;;;;;;5131306;27;20254;-85
2022/12/27 08:55:56;;;;;;;2.60;1.48;;;;;;;;;;5120812;27;20227;-84
2022/12/27 08:58:25;;;;;;;1.02;1.00;;;;;;;;;;5119924;28;20222;-84
2022/12/27 09:00:52;;;;;;;1.15;1.10;;;;;;;;;;5120568;28;20263;-85
2022/12/27 09:03:21;;;;;;;3.97;1.85;;;;;;;;;;5121352;28;20283;-86
2022/12/27 09:05:49;;;;;;;3.13;1.23;;;;;;;;;;5137631;27;20574;-86
2022/12/27 09:08:17;;;;;;;1.08;1.08;;;;;;;;;;5140305;27;20711;-87
2022/12/27 09:10:44;;;;;;;1.25;1.15;;;;;;;;;;5129944;27;20251;-86
2022/12/27 09:13:12;;;;;;;1.20;0.98;;;;;;;;;;5140371;27;20226;-85
2022/12/27 09:15:41;;;;;;;1.52;1.45;;;;;;;;;;5133077;27;20780;-86
2022/12/27 09:18:10;;;;;;;1.42;1.10;;;;;;;;;;5125938;27;20233;-86
2022/12/27 09:20:38;;;;;;;2.25;1.33;;;;;;;;;;5140376;27;20282;-86
2022/12/27 09:23:05;;;;;;;1.50;1.40;;;;;;;;;;5140012;27;20195;-85
2022/12/27 09:25:33;;;;;;;2.45;1.58;;;;;;;;;;5138958;27;20262;-85
2022/12/27 09:28:00;;;;;;;3.42;1.40;;;;;;;;;;5131500;27;20645;-84
2022/12/27 09:30:28;;;;;;;3.08;1.35;;;;;;;;;;5118715;28;20224;-87
2022/12/27 09:32:58;;;;;;;1.17;1.08;;;;;;;;;;5118599;28;20204;-87
2022/12/27 09:35:26;;;;;;;1.25;1.15;;;;;;;;;;5139592;27;20218;-86
2022/12/27 09:37:53;;;;;;;1.45;1.25;;;;;;;;;;5129592;27;20238;-87
2022/12/27 09:40:21;;;;;;;1.27;1.10;;;;;;;;;;5133332;27;20227;-86
2022/12/27 09:42:55;;;;;;;1.45;1.35;;;;;;;;;;5138417;27;20227;-86
2022/12/27 09:45:28;;;;;;;1.67;1.25;;;;;;;;;;5122648;27;20282;-85
2022/12/27 09:48:03;;;;;;;0.95;0.88;;;;;;;;;;5118259;28;20219;-87
2022/12/27 09:50:33;;;;;;;2.72;1.48;;;;;;;;;;5118246;28;20765;-85
2022/12/27 09:53:05;;;;;;;1.58;1.13;;;;;;;;;;5119658;28;20586;-84
2022/12/27 09:55:41;;;;;;;1.52;1.27;;;;;;;;;;5118986;28;20188;-87
2022/12/27 09:58:25;;;;;;;2.38;1.58;;;;;;;;;;5118431;28;20223;-86
2022/12/27 10:00:53;;;;;;;1.00;1.00;;;;;;;;;;5118914;28;20683;-87
2022/12/27 10:03:25;;;;;;;1.40;1.35;;;;;;;;;;5119076;28;20628;-87
2022/12/27 10:05:59;;;;;;;2.40;1.13;;;;;;;;;;5118584;28;20194;-87
2022/12/27 10:08:38;;;;;;;1.88;1.13;;;;;;;;;;5119042;28;20743;-87
2022/12/27 10:11:34;;;;;;;3.83;1.75;;;;;;;;;;5119325;28;20199;-86
2022/12/27 10:14:19;;;;;;;1.60;1.33;;;;;;;;;;5130154;27;20202;-87
2022/12/27 10:16:54;;;;;;;1.10;1.10;;;;;;;;;;5136602;27;20230;-87
2022/12/27 10:19:34;;;;;;;1.17;1.15;;;;;;;;;;5125916;27;20196;-84
2022/12/27 10:22:14;;;;;;;1.95;1.23;;;;;;;;;;5135443;27;20294;-86
2022/12/27 10:24:47;;;;;;;1.55;1.40;;;;;;;;;;5139152;27;20238;-84
2022/12/27 10:27:17;;;;;;;1.33;1.23;;;;;;;;;;5137489;27;20279;-84
2022/12/27 10:29:46;;;;;;;1.67;1.58;;;;;;;;;;5136317;27;20270;-85
2022/12/27 10:32:16;;;;;;;2.17;1.20;;;;;;;;;;5120910;27;20239;-85
2022/12/27 10:34:45;;;;;;;1.40;1.30;;;;;;;;;;5125673;27;20273;-84
2022/12/27 10:37:15;;;;;;;0.75;0.75;;;;;;;;;;5129695;27;20596;-87
2022/12/27 10:39:44;;;;;;;1.23;1.10;;;;;;;;;;5125389;27;20283;-87
2022/12/27 10:42:25;;;;;;;1.67;1.17;;;;;;;;;;5125644;27;20229;-86
2022/12/27 10:44:52;;;;;;;1.30;1.20;;;;;;;;;;5116923;28;20271;-84
2022/12/27 10:47:20;;;;;;;1.95;1.50;;;;;;;;;;5129843;27;20274;-85
2022/12/27 10:50:09;;;;;;;1.40;1.25;;;;;;;;;;5122209;27;20230;-84
2022/12/27 10:52:38;;;;;;;1.58;1.27;;;;;;;;;;5116239;28;20180;-84
2022/12/27 10:55:14;;;;;;;1.48;1.25;;;;;;;;;;5129682;27;20628;-85
2022/12/27 10:57:41;;;;;;;1.40;1.30;;;;;;;;;;5134154;27;20657;-83
2022/12/27 11:00:17;;;;;;;1.70;1.60;;;;;;;;;;5130100;27;20195;-84
2022/12/27 11:02:53;;;;;;;1.73;1.35;;;;;;;;;;5116419;28;20248;-85
2022/12/27 11:05:24;;;;;;;1.52;1.00;;;;;;;;;;5121405;27;20209;-85
2022/12/27 11:07:53;;;;;;;2.25;1.23;;;;;;;;;;5117827;28;20274;-84
2022/12/27 11:10:23;;;;;;;1.65;1.35;;;;;;;;;;5128073;27;20219;-84
2022/12/27 11:13:00;;;;;;;2.42;1.23;;;;;;;;;;5133648;27;20191;-83
2022/12/27 11:15:30;;;;;;;1.40;1.30;;;;;;;;;;5135295;27;20214;-84
2022/12/27 11:18:00;;;;;;;1.08;1.05;;;;;;;;;;5132749;27;20346;-83
2022/12/27 11:20:32;;;;;;;1.30;1.20;;;;;;;;;;5125150;28;21096;-83
2022/12/27 11:23:03;;;;;;;2.05;1.20;;;;;;;;;;5136103;27;20202;-86
2022/12/27 11:25:31;;;;;;;1.00;1.00;;;;;;;;;;5136798;28;20209;-86
2022/12/27 11:28:01;;;;;;;0.90;0.90;;;;;;;;;;5131456;28;20306;-86
2022/12/27 11:30:31;;;;;;;1.55;1.05;;;;;;;;;;5131516;28;20281;-86
2022/12/27 11:33:06;;;;;;;2.85;1.70;;;;;;;;;;5136062;28;20183;-87
2022/12/27 11:35:44;;;;;;;2.03;1.90;;;;;;;;;;5120726;28;20227;-87
2022/12/27 11:38:23;;;;;;;2.83;1.52;;;;;;;;;;5118404;28;20593;-85
2022/12/27 11:40:58;;;;;;;2.63;1.38;;;;;;;;;;5130227;28;20202;-85
2022/12/27 11:43:26;;;;;;;1.10;1.00;;;;;;;;;;5135561;28;20196;-86
2022/12/27 11:45:55;;;;;;;1.10;1.10;;;;;;;;;;5136015;28;20712;-85
2022/12/27 11:48:28;;;;;;;2.22;1.50;;;;;;;;;;5124347;28;20223;-85
2022/12/27 11:51:18;;;;;;;3.47;1.48;;;;;;;;;;5135234;28;20279;-86
2022/12/27 11:54:13;;;;;;;1.08;1.00;;;;;;;;;;5114753;28;20191;-86
2022/12/27 11:56:43;;;;;;;2.38;1.95;;;;;;;;;;5114561;28;20202;-84
2022/12/27 11:59:30;;;;;;;1.40;1.30;;;;;;;;;;5128037;27;20710;-84
2022/12/27 12:02:26;;;;;;;1.10;1.10;;;;;;;;;;5139195;27;20266;-84
2022/12/27 12:05:57;;;;;;;1.70;1.30;;;;;;;;;;5139442;27;20214;-85
2022/12/27 12:08:49;;;;;;;0.80;0.80;;;;;;;;;;5125035;27;20210;-85
2022/12/27 12:11:29;;;;;;;1.20;1.10;;;;;;;;;;5137542;27;20207;-85
2022/12/27 12:14:35;;;;;;;1.65;1.30;;;;;;;;;;5136837;27;20559;-85
2022/12/27 12:17:32;;;;;;;1.30;1.20;;;;;;;;;;5138846;27;20183;-84
2022/12/27 12:20:32;;;;;;;1.55;1.45;;;;;;;;;;5138058;27;20191;-83
2022/12/27 12:23:10;;;;;;;0.85;0.85;;;;;;;;;;5120297;27;20279;-84
2022/12/27 12:26:19;;;;;;;4.15;1.17;;;;;;;;;;5139042;27;20183;-84
2022/12/27 12:29:47;;;;;;;1.40;1.30;;;;;;;;;;5132631;27;20211;-86
2022/12/27 12:32:31;;;;;;;5.75;1.73;;;;;;;;;;5050212;28;20212;-84
2022/12/27 12:35:18;;;;;;;2.38;1.30;;;;;;;;;;5054174;28;20225;-84
2022/12/27 12:38:04;;;;;;;1.30;1.20;;;;;;;;;;5107441;27;20274;-83
2022/12/27 12:41:20;;;;;;;1.35;1.25;;;;;;;;;;5138607;27;20191;-83
2022/12/27 12:44:43;;;;;;;2.28;1.20;;;;;;;;;;5137671;27;20179;-84
2022/12/27 12:47:29;;;;;;;2.88;1.27;;;;;;;;;;5131473;27;20241;-86
2022/12/27 12:50:24;;;;;;;2.33;1.40;;;;;;;;;;5138871;27;20244;-86
2022/12/27 12:53:16;;;;;;;0.98;0.98;;;;;;;;;;5118301;28;20251;-85
2022/12/27 12:55:59;;;;;;;1.20;0.88;;;;;;;;;;5116385;28;20200;-84
2022/12/27 12:58:46;;;;;;;1.20;1.10;;;;;;;;;;5118423;28;20226;-85
2022/12/27 13:01:34;;;;;;;2.53;1.27;;;;;;;;;;5118374;28;20229;-85
2022/12/27 13:04:31;;;;;;;2.20;1.23;;;;;;;;;;5122270;27;20585;-85
2022/12/27 13:07:23;;;;;;;1.50;1.13;;;;;;;;;;5138630;27;20194;-86
2022/12/27 13:10:20;;;;;;;1.15;1.05;;;;;;;;;;5138793;27;20193;-85
2022/12/27 13:12:56;;;;;;;2.00;1.10;;;;;;;;;;5137964;27;20217;-85
2022/12/27 13:15:33;;;;;;;0.98;0.98;;;;;;;;;;5138794;27;20698;-86
2022/12/27 13:18:14;;;;;;;0.70;0.70;;;;;;;;;;5118354;28;20212;-85
2022/12/27 13:21:03;;;;;;;0.98;0.90;;;;;;;;;;5122138;27;20195;-85
2022/12/27 13:23:40;;;;;;;1.20;1.10;;;;;;;;;;5136254;27;20179;-84
2022/12/27 13:26:20;;;;;;;0.82;0.80;;;;;;;;;;5130779;27;20630;-83
2022/12/27 13:29:05;;;;;;;1.33;0.80;;;;;;;;;;5124807;27;20231;-84
2022/12/27 13:31:45;;;;;;;1.05;0.90;;;;;;;;;;5117628;28;20180;-85
2022/12/27 13:34:27;;;;;;;0.80;0.80;;;;;;;;;;5119030;28;20203;-85
2022/12/27 13:37:12;;;;;;;0.70;0.70;;;;;;;;;;5120378;27;20295;-85
2022/12/27 13:40:03;;;;;;;0.80;0.80;;;;;;;;;;5138607;27;20194;-83
2022/12/27 13:43:25;;;;;;;1.02;0.93;;;;;;;;;;5138757;27;20262;-84
2022/12/27 13:46:16;;;;;;;1.42;1.23;;;;;;;;;;5054812;28;20207;-85
2022/12/27 13:48:59;;;;;;;2.58;1.23;;;;;;;;;;5053843;28;20252;-86
2022/12/27 13:51:44;;;;;;;1.42;1.33;;;;;;;;;;5097822;28;20210;-85
2022/12/27 13:55:00;;;;;;;0.90;0.88;;;;;;;;;;5117413;28;20215;-84
2022/12/27 13:57:53;;;;;;;1.45;1.23;;;;;;;;;;5075784;27;20242;-84
2022/12/27 14:00:23;;;;;;;1.33;1.23;;;;;;;;;;5121450;27;20572;-84
2022/12/27 14:03:46;;;;;;;1.80;1.10;;;;;;;;;;5137205;27;20644;-85
2022/12/27 14:06:43;;;;;;;1.15;1.00;;;;;;;;;;5123611;27;20584;-85
2022/12/27 14:10:01;;;;;;;1.00;1.00;;;;;;;;;;5131011;27;20302;-86
2022/12/27 14:12:58;;;;;;;1.23;1.10;;;;;;;;;;5131534;27;20739;-86
2022/12/27 14:16:14;;;;;;;1.05;1.00;;;;;;;;;;5133874;27;20199;-85
2022/12/27 14:19:01;;;;;;;1.88;1.02;;;;;;;;;;5138984;27;20215;-85
2022/12/27 14:22:01;;;;;;;1.25;0.98;;;;;;;;;;5137462;27;20183;-85
2022/12/27 14:25:16;;;;;;;1.55;1.45;;;;;;;;;;5137131;27;20185;-84
2022/12/27 14:28:41;;;;;;;1.90;0.90;;;;;;;;;;5124157;27;20618;-83
2022/12/27 14:31:49;;;;;;;1.48;1.10;;;;;;;;;;5122882;27;20663;-84
2022/12/27 14:34:59;;;;;;;0.95;0.85;;;;;;;;;;5137867;27;20278;-85
2022/12/27 14:38:12;;;;;;;0.88;0.88;;;;;;;;;;5137197;27;20226;-84
2022/12/27 14:41:29;;;;;;;1.67;0.85;;;;;;;;;;5116637;28;20199;-86
2022/12/27 14:44:27;;;;;;;1.20;0.90;;;;;;;;;;5090721;27;20222;-84
2022/12/27 14:47:59;;;;;;;2.50;1.40;;;;;;;;;;5116553;28;20278;-85
2022/12/27 14:51:29;;;;;;;1.92;1.17;;;;;;;;;;5091096;28;20210;-85
2022/12/27 14:54:53;;;;;;;3.40;1.25;;;;;;;;;;5088167;28;20752;-85
2022/12/27 14:57:31;;;;;;;1.35;1.20;;;;;;;;;;5076352;28;20310;-85
2022/12/27 15:00:05;;;;;;;0.80;0.80;;;;;;;;;;5116510;28;20199;-85
2022/12/27 15:02:54;;;;;;;2.80;1.30;;;;;;;;;;5126930;27;20194;-85
2022/12/27 15:05:34;;;;;;;2.35;0.80;;;;;;;;;;5137576;27;20199;-86
2022/12/27 15:08:45;;;;;;;0.80;0.80;;;;;;;;;;5127999;27;20709;-85
2022/12/27 15:11:32;;;;;;;1.35;1.10;;;;;;;;;;5073093;28;20697;-86
2022/12/27 15:14:16;;;;;;;1.35;0.90;;;;;;;;;;5073264;28;20225;-85
2022/12/27 15:16:52;;;;;;;1.45;0.95;;;;;;;;;;5105244;28;20246;-86
2022/12/27 15:19:40;;;;;;;1.20;1.10;;;;;;;;;;5114657;28;20274;-86
2022/12/27 15:22:15;;;;;;;1.23;1.13;;;;;;;;;;5116776;28;20208;-86
2022/12/27 15:24:52;;;;;;;1.25;1.08;;;;;;;;;;5116057;28;20180;-85
2022/12/27 15:27:27;;;;;;;2.97;1.40;;;;;;;;;;5116312;28;20751;-84
2022/12/27 15:30:09;;;;;;;5.45;1.30;;;;;;;;;;5117156;28;20289;-86
2022/12/27 15:32:46;;;;;;;1.63;1.05;;;;;;;;;;5121278;28;20199;-84
2022/12/27 15:35:40;;;;;;;0.80;0.80;;;;;;;;;;5118472;28;20271;-85
2022/12/27 15:38:14;;;;;;;2.38;1.20;;;;;;;;;;5119155;28;20251;-84
2022/12/27 15:41:29;;;;;;;3.10;1.40;;;;;;;;;;5121930;27;20195;-84
2022/12/27 15:44:25;;;;;;;1.77;1.10;;;;;;;;;;5120508;28;20271;-86
2022/12/27 15:47:47;;;;;;;1.25;0.93;;;;;;;;;;5120539;27;20191;-86
2022/12/27 15:50:29;;;;;;;1.30;1.20;;;;;;;;;;5080490;28;20257;-86
2022/12/27 15:53:29;;;;;;;1.20;1.10;;;;;;;;;;5119849;28;20686;-84
2022/12/27 15:56:22;;;;;;;5.95;1.65;;;;;;;;;;5120489;28;20188;-86
2022/12/27 15:59:36;;;;;;;1.38;1.27;;;;;;;;;;5119469;28;20780;-86
2022/12/27 16:02:32;;;;;;;1.92;1.60;;;;;;;;;;5072376;28;20225;-86
2022/12/27 16:05:10;;;;;;;2.33;1.40;;;;;;;;;;5137684;27;20209;-85
2022/12/27 16:07:50;;;;;;;1.83;1.25;;;;;;;;;;5119038;27;20215;-85
2022/12/27 16:10:48;;;;;;;2.17;1.95;;;;;;;;;;5119442;28;20621;-85
2022/12/27 16:13:34;;;;;;;1.15;1.00;;;;;;;;;;5119270;28;20208;-86
2022/12/27 16:16:02;;;;;;;1.20;1.10;;;;;;;;;;5119668;27;20256;-83
2022/12/27 16:19:19;;;;;;;1.25;1.10;;;;;;;;;;5119311;28;20243;-85
2022/12/27 16:21:47;;;;;;;1.88;1.40;;;;;;;;;;5122005;27;20697;-84
2022/12/27 16:24:19;;;;;;;1.30;1.20;;;;;;;;;;5124830;27;20219;-85
2022/12/27 16:26:55;;;;;;;1.63;1.30;;;;;;;;;;5138720;27;20206;-84
2022/12/27 16:29:28;;;;;;;1.58;1.30;;;;;;;;;;5139684;27;20202;-83
2022/12/27 16:32:20;;;;;;;1.05;1.02;;;;;;;;;;5128728;27;20207;-84
2022/12/27 16:34:50;;;;;;;1.30;1.20;;;;;;;;;;5118661;28;20291;-83
2022/12/27 16:37:28;;;;;;;1.40;1.30;;;;;;;;;;5118970;27;20223;-84
2022/12/27 16:40:17;;;;;;;1.92;1.33;;;;;;;;;;5138157;27;20206;-85
2022/12/27 16:43:46;;;;;;;1.10;1.02;;;;;;;;;;5124650;27;20205;-85
2022/12/27 16:46:32;;;;;;;1.92;1.73;;;;;;;;;;5116822;28;20191;-84
2022/12/27 16:49:37;;;;;;;2.47;1.85;;;;;;;;;;5120140;27;20249;-86
2022/12/27 16:52:20;;;;;;;2.50;2.30;;;;;;;;;;5108127;27;20210;-85
2022/12/27 16:54:57;;;;;;;1.90;1.77;;;;;;;;;;5118368;28;20293;-84
2022/12/27 16:57:46;;;;;;;2.10;1.90;;;;;;;;;;5118319;28;20230;-84
2022/12/27 17:00:38;;;;;;;2.95;2.75;;;;;;;;;;5120938;27;20242;-84
2022/12/27 17:03:47;;;;;;;2.80;2.60;;;;;;;;;;5118933;28;20180;-83
2022/12/27 17:07:02;;;;;;;7.28;3.53;;;;;;;;;;5118931;28;20607;-84
2022/12/27 17:09:44;;;;;;;2.78;2.40;;;;;;;;;;5059649;28;20796;-83
2022/12/27 17:12:23;;;;;;;2.80;2.50;;;;;;;;;;5119548;27;20647;-85
2022/12/27 17:14:58;;;;;;;2.47;1.80;;;;;;;;;;5122809;27;20581;-86
2022/12/27 17:17:26;;;;;;;1.88;1.77;;;;;;;;;;5117487;28;20715;-84
2022/12/27 17:20:02;;;;;;;4.30;1.60;;;;;;;;;;5117441;27;20690;-84
2022/12/27 17:22:32;;;;;;;2.72;1.85;;;;;;;;;;5137716;27;20203;-84
2022/12/27 17:25:00;;;;;;;2.60;2.40;;;;;;;;;;5132805;27;20198;-86
2022/12/27 17:28:00;;;;;;;2.72;2.53;;;;;;;;;;5137564;27;20219;-85
2022/12/27 17:30:36;;;;;;;2.20;2.00;;;;;;;;;;5118989;27;20673;-85